createdAt,value
2018-08-20T00:00:35.491Z,24.02
2018-08-20T00:03:03.203Z,24.01
2018-08-20T00:05:33.848Z,23.98
2018-08-20T00:08:01.503Z,23.96
2018-08-20T00:10:29.186Z,23.94
2018-08-20T00:12:56.828Z,23.94
2018-08-20T00:15:24.486Z,23.91
2018-08-20T00:17:52.115Z,23.88
2018-08-20T00:20:19.787Z,23.87
2018-08-20T00:22:47.373Z,23.84
2018-08-20T00:25:17.535Z,23.73
2018-08-20T00:27:45.865Z,23.68
2018-08-20T00:30:15.419Z,23.65
2018-08-20T00:32:44.234Z,23.59
2018-08-20T00:35:14.380Z,23.42
2018-08-20T00:37:44.954Z,23.47
2018-08-20T00:40:12.624Z,23.48
2018-08-20T00:42:40.261Z,23.57
2018-08-20T00:45:08.451Z,23.59
2018-08-20T00:47:36.043Z,23.54
2018-08-20T00:50:04.369Z,23.63
2018-08-20T00:52:31.983Z,23.63
2018-08-20T00:54:59.599Z,23.57
2018-08-20T00:57:27.230Z,23.54
2018-08-20T00:59:54.877Z,23.41
2018-08-20T01:02:29.418Z,23.44
2018-08-20T01:04:57.859Z,23.41
2018-08-20T01:07:25.999Z,23.37
2018-08-20T01:09:53.999Z,23.36
2018-08-20T01:12:21.690Z,23.35
2018-08-20T01:14:49.330Z,23.20
2018-08-20T01:17:17.008Z,23.20
2018-08-20T01:19:44.758Z,23.24
2018-08-20T01:22:12.364Z,23.23
2018-08-20T01:24:40.044Z,23.22
2018-08-20T01:27:07.654Z,23.22
2018-08-20T01:29:35.226Z,23.20
2018-08-20T01:32:02.904Z,23.19
2018-08-20T01:34:30.511Z,23.18
2018-08-20T01:36:58.086Z,23.14
2018-08-20T01:39:25.793Z,23.13
2018-08-20T01:41:53.366Z,23.10
2018-08-20T01:44:21.044Z,23.12
2018-08-20T01:46:48.711Z,23.05
2018-08-20T01:49:16.282Z,23.05
2018-08-20T01:51:43.899Z,23.00
2018-08-20T01:54:11.522Z,22.94
2018-08-20T01:56:39.199Z,22.95
2018-08-20T01:59:06.802Z,22.95
2018-08-20T02:01:34.483Z,22.85
2018-08-20T02:04:02.151Z,22.82
2018-08-20T02:06:29.806Z,22.77
2018-08-20T02:08:57.544Z,22.70
2018-08-20T02:11:25.252Z,22.70
2018-08-20T02:13:52.946Z,22.69
2018-08-20T02:16:20.590Z,22.66
2018-08-20T02:18:48.155Z,22.65
2018-08-20T02:21:15.750Z,22.63
2018-08-20T02:23:43.457Z,22.61
2018-08-20T02:26:11.040Z,22.58
2018-08-20T02:28:38.654Z,22.59
2018-08-20T02:31:06.295Z,22.57
2018-08-20T02:33:33.981Z,22.56
2018-08-20T02:36:01.588Z,22.55
2018-08-20T02:38:29.728Z,22.51
2018-08-20T02:40:57.378Z,22.49
2018-08-20T02:43:25.017Z,22.50
2018-08-20T02:45:52.659Z,22.46
2018-08-20T02:48:20.352Z,22.42
2018-08-20T02:50:47.954Z,22.39
2018-08-20T02:53:15.615Z,22.33
2018-08-20T02:55:43.345Z,22.27
2018-08-20T02:58:10.982Z,22.26
2018-08-20T03:00:38.625Z,22.18
2018-08-20T03:03:06.314Z,22.15
2018-08-20T03:05:34.235Z,22.11
2018-08-20T03:08:01.931Z,22.03
2018-08-20T03:10:29.548Z,22.00
2018-08-20T03:12:57.208Z,22.00
2018-08-20T03:15:24.893Z,21.98
2018-08-20T03:17:52.551Z,21.94
2018-08-20T03:20:20.205Z,21.94
2018-08-20T03:22:47.935Z,21.92
2018-08-20T03:25:15.562Z,21.91
2018-08-20T03:27:43.150Z,21.90
2018-08-20T03:30:10.978Z,21.88
2018-08-20T03:32:39.504Z,21.84
2018-08-20T03:35:08.591Z,21.80
2018-08-20T03:37:36.339Z,21.79
2018-08-20T03:40:04.723Z,21.77
2018-08-20T03:42:32.323Z,21.72
2018-08-20T03:45:00.010Z,21.64
2018-08-20T03:47:27.662Z,21.59
2018-08-20T03:49:55.271Z,21.52
2018-08-20T03:52:22.935Z,21.48
2018-08-20T03:54:50.560Z,21.47
2018-08-20T03:57:18.169Z,21.47
2018-08-20T03:59:45.834Z,21.45
2018-08-20T04:02:13.462Z,21.46
2018-08-20T04:04:41.055Z,21.47
2018-08-20T04:07:08.730Z,21.44
2018-08-20T04:09:36.379Z,21.42
2018-08-20T04:12:04.441Z,21.39
2018-08-20T04:14:32.056Z,21.39
2018-08-20T04:17:00.043Z,21.41
2018-08-20T04:19:28.202Z,21.41
2018-08-20T04:21:55.860Z,21.36
2018-08-20T04:24:23.455Z,21.35
2018-08-20T04:26:51.483Z,21.32
2018-08-20T04:29:19.673Z,21.30
2018-08-20T04:31:47.470Z,21.31
2018-08-20T04:34:15.219Z,21.30
2018-08-20T04:36:42.924Z,21.23
2018-08-20T04:39:10.762Z,21.20
2018-08-20T04:41:38.814Z,21.17
2018-08-20T04:44:06.544Z,21.20
2018-08-20T04:46:34.211Z,21.17
2018-08-20T04:49:01.804Z,21.16
2018-08-20T04:51:29.637Z,21.23
2018-08-20T04:53:57.115Z,21.24
2018-08-20T04:56:25.383Z,21.23
2018-08-20T04:58:53.047Z,21.24
2018-08-20T05:01:20.750Z,21.28
2018-08-20T05:03:48.369Z,21.28
2018-08-20T05:06:16.182Z,21.29
2018-08-20T05:08:43.823Z,21.29
2018-08-20T05:11:11.480Z,21.32
2018-08-20T05:13:39.100Z,21.40
2018-08-20T05:16:06.725Z,21.48
2018-08-20T05:18:34.380Z,21.54
2018-08-20T05:21:02.163Z,21.63
2018-08-20T05:23:29.804Z,21.75
2018-08-20T05:25:57.455Z,21.83
2018-08-20T05:28:25.159Z,21.92
2018-08-20T05:30:52.795Z,22.03
2018-08-20T05:33:20.432Z,22.14
2018-08-20T05:35:48.066Z,22.18
2018-08-20T05:38:15.779Z,22.31
2018-08-20T05:40:43.364Z,22.40
2018-08-20T05:43:10.988Z,22.51
2018-08-20T05:45:38.652Z,22.64
2018-08-20T05:48:06.317Z,22.77
2018-08-20T05:50:33.983Z,22.89
2018-08-20T05:53:01.585Z,23.02
2018-08-20T05:55:29.630Z,23.06
2018-08-20T05:57:57.255Z,23.11
2018-08-20T06:00:24.927Z,23.05
2018-08-20T06:02:52.555Z,23.07
2018-08-20T06:05:20.202Z,23.19
2018-08-20T06:07:47.830Z,23.39
2018-08-20T06:10:15.447Z,23.55
2018-08-20T06:12:43.135Z,23.65
2018-08-20T06:15:13.468Z,23.69
2018-08-20T06:17:41.290Z,23.78
2018-08-20T06:20:14.165Z,23.76
2018-08-20T06:22:42.039Z,23.80
2018-08-20T06:25:10.899Z,23.83
2018-08-20T06:27:38.993Z,23.90
2018-08-20T06:30:07.603Z,23.96
2018-08-20T06:32:35.938Z,24.18
2018-08-20T06:35:04.007Z,24.24
2018-08-20T06:37:31.639Z,24.55
2018-08-20T06:39:59.252Z,24.64
2018-08-20T06:42:26.885Z,24.79
2018-08-20T06:44:54.499Z,25.07
2018-08-20T06:47:22.171Z,25.30
2018-08-20T06:49:49.783Z,25.46
2018-08-20T06:52:17.427Z,25.28
2018-08-20T06:54:45.020Z,25.36
2018-08-20T06:57:12.662Z,25.58
2018-08-20T06:59:40.358Z,25.89
2018-08-20T07:02:08.092Z,26.03
2018-08-20T07:04:35.749Z,26.17
2018-08-20T07:07:03.422Z,26.16
2018-08-20T07:09:31.031Z,26.34
2018-08-20T07:11:58.786Z,26.54
2018-08-20T07:14:26.411Z,26.70
2018-08-20T07:16:54.014Z,26.83
2018-08-20T07:19:21.857Z,26.74
2018-08-20T07:21:49.476Z,26.65
2018-08-20T07:24:17.102Z,26.82
2018-08-20T07:26:44.843Z,27.02
2018-08-20T07:29:13.170Z,27.29
2018-08-20T07:31:40.871Z,27.57
2018-08-20T07:34:08.550Z,27.54
2018-08-20T07:36:36.235Z,27.63
2018-08-20T07:39:04.093Z,27.69
2018-08-20T07:41:31.744Z,27.74
2018-08-20T07:43:59.392Z,27.80
2018-08-20T07:46:27.055Z,28.01
2018-08-20T07:48:55.468Z,28.14
2018-08-20T07:51:23.087Z,28.32
2018-08-20T07:53:50.692Z,28.37
2018-08-20T07:56:18.443Z,28.43
2018-08-20T07:58:46.072Z,28.45
2018-08-20T08:01:13.719Z,28.67
2018-08-20T08:03:41.452Z,28.88
2018-08-20T08:06:09.102Z,29.07
2018-08-20T08:08:36.833Z,29.08
2018-08-20T08:11:04.575Z,29.25
2018-08-20T08:13:32.219Z,29.34
2018-08-20T08:15:59.859Z,29.38
2018-08-20T08:18:27.624Z,29.68
2018-08-20T08:20:55.271Z,30.06
2018-08-20T08:23:22.919Z,30.63
2018-08-20T08:25:50.621Z,31.01
2018-08-20T08:28:18.311Z,31.49
2018-08-20T08:30:45.991Z,31.81
2018-08-20T08:33:13.687Z,32.35
2018-08-20T08:35:41.359Z,32.86
2018-08-20T08:38:09.137Z,32.99
2018-08-20T08:40:36.795Z,32.56
2018-08-20T08:43:04.528Z,33.08
2018-08-20T08:45:32.234Z,31.68
2018-08-20T08:47:59.899Z,32.51
2018-08-20T08:50:27.678Z,32.87
2018-08-20T08:52:55.371Z,32.95
2018-08-20T08:55:23.035Z,33.06
2018-08-20T08:57:50.621Z,32.53
2018-08-20T09:00:19.637Z,32.94
2018-08-20T09:02:47.380Z,32.97
2018-08-20T09:05:15.125Z,33.34
2018-08-20T09:07:43.237Z,33.80
2018-08-20T09:10:11.444Z,33.60
2018-08-20T09:12:39.161Z,33.59
2018-08-20T09:15:09.379Z,33.61
2018-08-20T09:17:37.090Z,34.08
2018-08-20T09:20:06.616Z,34.08
2018-08-20T09:22:34.281Z,34.56
2018-08-20T09:25:01.948Z,34.28
2018-08-20T09:27:29.571Z,34.16
2018-08-20T09:29:57.288Z,33.98
2018-08-20T09:32:25.093Z,34.56
2018-08-20T09:34:52.670Z,34.82
2018-08-20T09:37:20.377Z,34.24
2018-08-20T09:39:48.108Z,34.26
2018-08-20T09:42:15.752Z,34.55
2018-08-20T09:44:43.357Z,34.52
2018-08-20T09:47:11.131Z,34.58
2018-08-20T09:49:38.799Z,34.62
2018-08-20T09:52:06.746Z,34.28
2018-08-20T09:54:34.407Z,34.51
2018-08-20T09:57:02.075Z,35.14
2018-08-20T09:59:30.062Z,35.15
2018-08-20T10:01:57.736Z,35.10
2018-08-20T10:04:25.415Z,35.42
2018-08-20T10:06:53.023Z,35.77
2018-08-20T10:09:20.704Z,34.92
2018-08-20T10:11:48.296Z,34.83
2018-08-20T10:14:15.982Z,35.16
2018-08-20T10:16:43.679Z,35.65
2018-08-20T10:19:11.308Z,36.04
2018-08-20T10:21:38.962Z,36.08
2018-08-20T10:24:06.820Z,36.04
2018-08-20T10:26:34.440Z,35.73
2018-08-20T10:29:02.087Z,36.26
2018-08-20T10:31:29.760Z,36.42
2018-08-20T10:33:57.410Z,36.30
2018-08-20T10:36:25.041Z,35.65
2018-08-20T10:38:52.680Z,35.79
2018-08-20T10:41:20.372Z,36.32
2018-08-20T10:43:48.023Z,36.80
2018-08-20T10:46:24.141Z,37.06
2018-08-20T10:48:51.805Z,37.33
2018-08-20T10:51:19.389Z,37.54
2018-08-20T10:53:47.194Z,37.20
2018-08-20T10:56:14.815Z,37.36
2018-08-20T10:58:42.550Z,37.47
2018-08-20T11:01:10.191Z,37.38
2018-08-20T11:03:42.423Z,38.05
2018-08-20T11:06:10.158Z,38.66
2018-08-20T11:08:37.987Z,39.16
2018-08-20T11:11:06.192Z,38.92
2018-08-20T11:13:33.884Z,38.05
2018-08-20T11:16:01.489Z,37.94
2018-08-20T11:18:29.336Z,38.54
2018-08-20T11:20:56.895Z,39.06
2018-08-20T11:23:24.524Z,37.86
2018-08-20T11:25:52.164Z,36.44
2018-08-20T11:28:19.840Z,36.52
2018-08-20T11:30:47.473Z,37.08
2018-08-20T11:33:15.117Z,36.17
2018-08-20T11:35:42.756Z,37.75
2018-08-20T11:38:10.391Z,37.95
2018-08-20T11:40:38.112Z,38.33
2018-08-20T11:43:06.210Z,37.61
2018-08-20T11:45:33.845Z,38.24
2018-08-20T11:48:01.515Z,38.19
2018-08-20T11:50:29.154Z,36.77
2018-08-20T11:52:56.725Z,35.70
2018-08-20T11:55:24.352Z,35.99
2018-08-20T11:57:51.999Z,35.05
2018-08-20T12:00:19.612Z,34.53
2018-08-20T12:02:47.236Z,35.58
2018-08-20T12:05:14.937Z,37.17
2018-08-20T12:07:42.621Z,38.03
2018-08-20T12:10:10.703Z,38.89
2018-08-20T12:12:38.970Z,39.74
2018-08-20T12:15:08.391Z,40.12
2018-08-20T12:17:36.063Z,40.41
2018-08-20T12:20:04.176Z,38.81
2018-08-20T12:22:31.877Z,38.12
2018-08-20T12:24:59.542Z,37.18
2018-08-20T12:27:27.235Z,37.93
2018-08-20T12:29:54.865Z,37.83
2018-08-20T12:32:22.515Z,38.58
2018-08-20T12:34:50.136Z,38.67
2018-08-20T12:37:17.721Z,37.09
2018-08-20T12:39:45.364Z,38.52
2018-08-20T12:42:12.968Z,40.37
2018-08-20T12:44:40.571Z,41.34
2018-08-20T12:47:08.203Z,42.33
2018-08-20T12:49:35.892Z,42.42
2018-08-20T12:52:03.575Z,42.42
2018-08-20T12:54:31.179Z,43.05
2018-08-20T12:56:58.930Z,43.53
2018-08-20T12:59:26.555Z,42.64
2018-08-20T13:01:54.174Z,42.83
2018-08-20T13:04:21.864Z,43.03
2018-08-20T13:06:49.462Z,42.46
2018-08-20T13:09:17.133Z,42.16
2018-08-20T13:11:44.787Z,42.10
2018-08-20T13:14:12.431Z,42.30
2018-08-20T13:16:40.096Z,42.17
2018-08-20T13:19:07.807Z,42.39
2018-08-20T13:21:35.549Z,42.63
2018-08-20T13:24:03.222Z,42.29
2018-08-20T13:26:30.863Z,41.76
2018-08-20T13:28:58.474Z,42.12
2018-08-20T13:31:26.112Z,42.46
2018-08-20T13:33:53.769Z,42.71
2018-08-20T13:36:21.353Z,42.94
2018-08-20T13:38:48.992Z,41.75
2018-08-20T13:41:16.648Z,39.84
2018-08-20T13:43:44.283Z,38.61
2018-08-20T13:46:11.935Z,37.87
2018-08-20T13:48:39.665Z,39.03
2018-08-20T13:51:07.276Z,39.71
2018-08-20T13:53:34.943Z,40.27
2018-08-20T13:56:02.693Z,40.47
2018-08-20T13:58:30.427Z,40.41
2018-08-20T14:00:58.168Z,40.82
2018-08-20T14:03:25.826Z,40.44
2018-08-20T14:05:53.467Z,40.92
2018-08-20T14:08:21.113Z,39.71
2018-08-20T14:10:48.747Z,37.27
2018-08-20T14:13:16.370Z,35.93
2018-08-20T14:15:44.159Z,35.38
2018-08-20T14:18:11.788Z,36.13
2018-08-20T14:20:52.712Z,35.16
2018-08-20T14:23:20.464Z,35.91
2018-08-20T14:25:48.078Z,35.37
2018-08-20T14:28:15.737Z,36.67
2018-08-20T14:30:43.387Z,35.83
2018-08-20T14:33:10.984Z,36.04
2018-08-20T14:35:38.615Z,36.16
2018-08-20T14:38:06.384Z,35.67
2018-08-20T14:40:34.040Z,35.25
2018-08-20T14:43:01.648Z,34.48
2018-08-20T14:45:34.893Z,34.27
2018-08-20T14:48:02.521Z,33.28
2018-08-20T14:50:30.120Z,32.58
2018-08-20T14:52:57.808Z,32.14
2018-08-20T14:55:25.517Z,31.85
2018-08-20T14:57:53.136Z,31.62
2018-08-20T15:00:20.819Z,31.33
2018-08-20T15:02:48.490Z,31.29
2018-08-20T15:05:16.112Z,31.22
2018-08-20T15:07:43.766Z,31.03
2018-08-20T15:10:11.386Z,30.81
2018-08-20T15:12:39.012Z,30.80
2018-08-20T15:15:07.920Z,30.82
2018-08-20T15:17:35.535Z,30.76
2018-08-20T15:20:03.705Z,30.51
2018-08-20T15:22:31.442Z,30.20
2018-08-20T15:24:59.049Z,29.99
2018-08-20T15:27:26.736Z,29.95
2018-08-20T15:29:54.396Z,29.89
2018-08-20T15:32:22.169Z,29.73
2018-08-20T15:34:49.756Z,29.66
2018-08-20T15:37:17.412Z,29.43
2018-08-20T15:39:45.070Z,29.25
2018-08-20T15:42:12.691Z,29.04
2018-08-20T15:44:40.393Z,28.94
2018-08-20T15:47:08.189Z,28.85
2018-08-20T15:49:35.868Z,28.93
2018-08-20T15:52:03.606Z,28.95
2018-08-20T15:54:31.196Z,29.07
2018-08-20T15:56:58.884Z,29.13
2018-08-20T15:59:26.619Z,29.15
2018-08-20T16:01:54.284Z,29.11
2018-08-20T16:04:21.905Z,29.11
2018-08-20T16:06:49.607Z,29.26
2018-08-20T16:09:17.263Z,29.34
2018-08-20T16:11:44.967Z,29.44
2018-08-20T16:14:12.632Z,29.55
2018-08-20T16:16:40.321Z,29.54
2018-08-20T16:19:07.854Z,29.40
2018-08-20T16:21:35.477Z,29.29
2018-08-20T16:24:03.204Z,29.24
2018-08-20T16:26:30.795Z,29.15
2018-08-20T16:28:58.439Z,29.16
2018-08-20T16:31:26.129Z,29.16
2018-08-20T16:33:53.744Z,29.16
2018-08-20T16:36:21.459Z,29.09
2018-08-20T16:38:49.131Z,29.10
2018-08-20T16:41:16.829Z,28.96
2018-08-20T16:43:44.548Z,28.83
2018-08-20T16:46:12.250Z,28.71
2018-08-20T16:48:40.076Z,28.59
2018-08-20T16:51:07.943Z,28.60
2018-08-20T16:53:35.811Z,28.57
2018-08-20T16:56:03.797Z,28.54
2018-08-20T16:58:31.474Z,28.49
2018-08-20T17:00:59.156Z,28.32
2018-08-20T17:03:26.955Z,28.27
2018-08-20T17:05:56.779Z,28.30
2018-08-20T17:08:32.876Z,28.32
2018-08-20T17:11:00.600Z,28.31
2018-08-20T17:13:28.736Z,28.15
2018-08-20T17:15:56.386Z,28.09
2018-08-20T17:18:24.072Z,27.97
2018-08-20T17:20:51.750Z,27.87
2018-08-20T17:23:20.898Z,27.80
2018-08-20T17:25:48.623Z,27.77
2018-08-20T17:28:20.508Z,27.68
2018-08-20T17:30:48.642Z,27.58
2018-08-20T17:33:16.324Z,27.57
2018-08-20T17:35:44.016Z,27.54
2018-08-20T17:38:11.640Z,27.42
2018-08-20T17:40:39.889Z,27.37
2018-08-20T17:43:08.246Z,27.28
2018-08-20T17:45:35.898Z,27.30
2018-08-20T17:48:03.631Z,27.28
2018-08-20T17:50:39.463Z,27.26
2018-08-20T17:53:07.081Z,27.21
2018-08-20T17:55:34.842Z,27.21
2018-08-20T17:58:02.488Z,27.14
2018-08-20T18:00:38.404Z,27.14
2018-08-20T18:03:13.700Z,27.09
2018-08-20T18:05:42.177Z,27.06
2018-08-20T18:08:09.798Z,26.92
2018-08-20T18:10:37.420Z,26.94
2018-08-20T18:13:05.150Z,26.94
2018-08-20T18:15:32.760Z,26.84
2018-08-20T18:18:00.443Z,26.86
2018-08-20T18:20:32.419Z,26.90
2018-08-20T18:23:00.105Z,26.93
2018-08-20T18:25:33.400Z,26.97
2018-08-20T18:28:01.103Z,26.95
2018-08-20T18:30:28.821Z,26.87
2018-08-20T18:32:56.477Z,26.81
2018-08-20T18:35:29.536Z,26.80
2018-08-20T18:37:57.329Z,26.78
2018-08-20T18:40:24.946Z,26.77
2018-08-20T18:42:52.731Z,26.75
2018-08-20T18:45:20.520Z,26.72
2018-08-20T18:47:48.117Z,26.68
2018-08-20T18:50:15.836Z,26.65
2018-08-20T18:52:43.534Z,26.63
2018-08-20T18:55:11.147Z,26.55
2018-08-20T18:57:38.842Z,26.45
2018-08-20T19:00:08.931Z,26.39
2018-08-20T19:02:42.659Z,26.33
2018-08-20T19:05:12.506Z,26.31
2018-08-20T19:07:40.324Z,26.24
2018-08-20T19:10:15.439Z,26.23
2018-08-20T19:12:43.196Z,26.15
2018-08-20T19:15:23.778Z,26.03
2018-08-20T19:17:51.886Z,25.98
2018-08-20T19:20:19.710Z,25.91
2018-08-20T19:22:47.378Z,25.79
2018-08-20T19:25:14.989Z,25.71
2018-08-20T19:27:42.737Z,25.65
2018-08-20T19:30:17.161Z,25.60
2018-08-20T19:32:45.398Z,25.51
2018-08-20T19:35:13.208Z,25.46
2018-08-20T19:37:41.007Z,25.35
2018-08-20T19:40:09.002Z,25.28
2018-08-20T19:42:36.635Z,25.21
2018-08-20T19:45:06.236Z,25.17
2018-08-20T19:47:34.179Z,25.12
2018-08-20T19:50:01.828Z,25.06
2018-08-20T19:52:29.753Z,25.05
2018-08-20T19:55:06.260Z,25.01
2018-08-20T19:57:34.175Z,24.99
2018-08-20T20:00:02.063Z,24.95
2018-08-20T20:02:29.747Z,24.94
2018-08-20T20:05:03.572Z,24.95
2018-08-20T20:07:31.553Z,24.94
2018-08-20T20:09:59.236Z,24.93
2018-08-20T20:12:27.039Z,24.97
2018-08-20T20:14:57.547Z,24.96
2018-08-20T20:17:25.466Z,24.96
2018-08-20T20:19:53.487Z,24.98
2018-08-20T20:22:21.250Z,25.00
2018-08-20T20:24:49.034Z,25.01
2018-08-20T20:27:16.944Z,25.03
2018-08-20T20:29:44.564Z,25.09
2018-08-20T20:32:12.295Z,25.11
2018-08-20T20:34:40.085Z,25.15
2018-08-20T20:37:07.740Z,25.19
2018-08-20T20:39:36.064Z,25.17
2018-08-20T20:42:03.790Z,25.13
2018-08-20T20:44:31.463Z,25.13
2018-08-20T20:46:59.150Z,25.14
2018-08-20T20:49:26.896Z,25.17
2018-08-20T20:51:54.554Z,25.17
2018-08-20T20:54:22.208Z,25.21
2018-08-20T20:56:49.892Z,25.21
2018-08-20T20:59:17.606Z,25.20
2018-08-20T21:01:45.301Z,25.18
2018-08-20T21:04:12.978Z,25.13
2018-08-20T21:06:41.523Z,25.14
2018-08-20T21:09:11.407Z,25.14
2018-08-20T21:11:39.084Z,25.11
2018-08-20T21:14:06.803Z,25.09
2018-08-20T21:16:36.283Z,25.13
2018-08-20T21:19:04.741Z,25.09
2018-08-20T21:21:32.783Z,25.07
2018-08-20T21:24:00.493Z,25.05
2018-08-20T21:26:28.287Z,25.07
2018-08-20T21:28:56.201Z,25.04
2018-08-20T21:31:24.996Z,25.03
2018-08-20T21:34:00.094Z,25.04
2018-08-20T21:36:27.819Z,25.02
2018-08-20T21:38:55.480Z,25.03
2018-08-20T21:41:24.593Z,24.99
2018-08-20T21:43:52.426Z,25.04
2018-08-20T21:46:20.226Z,24.98
2018-08-20T21:48:48.236Z,24.98
2018-08-20T21:51:17.906Z,24.99
2018-08-20T21:53:45.555Z,25.07
2018-08-20T21:56:13.400Z,25.05
2018-08-20T21:58:42.358Z,25.01
2018-08-20T22:01:11.799Z,25.00
2018-08-20T22:03:40.371Z,25.00
2018-08-20T22:06:08.141Z,24.99
2018-08-20T22:08:35.850Z,24.97
2018-08-20T22:11:03.595Z,24.98
2018-08-20T22:13:31.241Z,24.97
2018-08-20T22:16:17.989Z,24.97
2018-08-20T22:18:47.518Z,24.97
2018-08-20T22:21:16.322Z,24.94
2018-08-20T22:23:44.853Z,24.91
2018-08-20T22:26:14.031Z,24.93
2018-08-20T22:28:42.063Z,24.94
2018-08-20T22:31:09.849Z,24.90
2018-08-20T22:33:37.958Z,24.87
2018-08-20T22:36:06.210Z,24.84
2018-08-20T22:38:50.915Z,24.82
2018-08-20T22:41:18.830Z,24.82
2018-08-20T22:43:46.530Z,24.81
2018-08-20T22:46:14.256Z,24.79
2018-08-20T22:48:41.940Z,24.76
2018-08-20T22:51:13.820Z,24.74
2018-08-20T22:53:47.766Z,24.73
2018-08-20T22:56:34.882Z,24.69
2018-08-20T22:59:05.994Z,24.69
2018-08-20T23:01:33.773Z,24.71
2018-08-20T23:04:01.547Z,24.66
2018-08-20T23:06:29.544Z,24.62
2018-08-20T23:08:57.334Z,24.61
2018-08-20T23:11:40.105Z,24.59
2018-08-20T23:14:09.527Z,24.58
2018-08-20T23:16:37.486Z,24.61
2018-08-20T23:19:05.226Z,24.61
2018-08-20T23:21:42.675Z,24.61
2018-08-20T23:24:11.234Z,24.60
2018-08-20T23:26:39.038Z,24.61
2018-08-20T23:29:06.851Z,24.61
2018-08-20T23:31:34.589Z,24.63
2018-08-20T23:34:02.273Z,24.63
2018-08-20T23:36:29.943Z,24.62
2018-08-20T23:38:57.654Z,24.62
2018-08-20T23:41:25.379Z,24.61
2018-08-20T23:43:57.579Z,24.60
2018-08-20T23:46:36.178Z,24.60
2018-08-20T23:49:03.956Z,24.57
2018-08-20T23:51:31.701Z,24.56
2018-08-20T23:53:59.383Z,24.56
2018-08-20T23:56:27.054Z,24.59
2018-08-20T23:58:54.666Z,24.56
